KERO2: Robert S. Kerr Lock & Dam & Reservoir (L&D 15)

Data processed at Wed May 22 2019 23:50


All information presented herein is the property of the government of the United States of America and may be revised or deleted at any time without prior notice.
Dissemination of this information without the expressed written consent of the Public Affairs Office, Tulsa District U.S. Army Corps of Engineers is strictly prohibited.
These data are gathered electronically and, as presented, have not undergone any form of quality control. These data are not guaranteed to be valid or correct.
Go to home page.
Go to station list.
Go to home page.

Upstream stations:

Downstream station:
Previous Day
Next Day
Current Day
    
SHEF ID:       KERO2     RS Kerr LD15
STATION TYPE:  NAVIGATION LOCK
Navigation Pool:  Bottom =   458.00, Top =   460.00

               PRECIP ELEVATION   STORAGE   TW-ELEV    INFLOW   RELEASE  AIR-TEMP  WIND-DIRWIND-SPEED REL-HUMID SOLAR-RAD   VOLTAGE  BAT-LOAD
                   in        ft     ac-ft        ft       cfs       cfs         F       deg       mph         %      W/m2      volt      volt
              Ccp-Rev   Ccp-Rev   Ccp-Rev   Ccp-Rev  Rev-Regi  Rev-Regi   Ccp-Rev   Ccp-Rev   Ccp-Rev   Ccp-Rev   Ccp-Rev   Ccp-Rev   Ccp-Rev
(US/Central)
05/22 00:00      0.00    459.80    517070    429.35    200848    192137     62.22     56.60      0.92     94.77      0.00     13.85     13.48
05/22 01:00      0.00    459.83    518363    429.59    190166    192450     61.47     51.10      1.39     97.72      0.00     13.85     13.42
05/22 02:00      0.00    459.85    519225    429.74    191166    207300     60.37     60.40      1.83     97.23      0.00     13.87     13.42
05/22 03:00      0.00    459.75    514915    430.70    196395    208000     60.37     54.70      1.74     96.86      0.00     13.85     13.48
05/22 04:00      0.00    459.72    513622    431.03    190228    208200     59.70     59.90      2.22     97.78      0.00     13.85     13.42
05/22 05:00      0.00    459.75    514915    431.23    187120    208200     58.60     56.90      2.36     99.73      0.00     13.84     13.48
05/22 06:00      0.00    459.69    512329    431.36    204707    208200     58.06     54.30      2.04    100.28      0.00     13.84     13.48
05/22 07:00      0.00    459.65    510605    432.16    210601    222225     58.82     60.30      2.56     98.69     23.00     13.84     13.48
05/22 08:00      0.00    459.69    512329    432.53    194737    221825     62.13     56.50      2.93     90.63    176.00     13.86     13.48
05/22 09:00      0.00    459.69    512329    432.74    221710    222750     63.45     45.50      3.58     90.27    128.00     13.86     13.48
05/22 10:00      0.00    459.54    505864    433.29    222518    233550     65.97     51.30      3.68     89.17    225.00     13.84     13.48
05/22 11:00      0.00    459.69    512329    433.62    218146    233100     72.68     56.00      2.59     81.59    603.00     13.85     13.48
05/22 12:00      0.00    459.61    508881    433.97    225761    247300     77.83     67.70      2.07     77.74    925.00     13.85     13.48
05/22 13:00      0.00    459.56    506726    434.41    205904    259900     82.22    104.10      3.83     69.13    870.00     13.77     13.48
05/22 14:00      0.00    459.56    506726    435.18    172936    290350     82.22    150.70      5.09     72.66    536.00     13.86     13.48
05/22 15:00      0.00    459.09    486469    436.93    181324    314650     83.64    151.50      5.20     70.58    741.00     13.85     13.42
05/22 16:00      0.00    458.76    472608    438.35    174227    339000     85.41    155.20      6.09     66.06    758.00     13.84     13.42
05/22 17:00      0.00    458.55    463874    438.60    177760    382000     86.61    153.50      6.78     64.60    681.00     13.85     13.42
05/22 18:00      0.00    458.16    447654    440.18    225023    382000     85.50    161.30      7.76     65.45    424.00     13.84     13.36
05/22 19:00      0.00    457.95    439023    440.57    244293    382000     84.51    152.70      6.90     67.34    154.00     13.85     13.36
05/22 20:00      0.00    457.74    430722    440.76    255853    382000     82.74    134.20      5.63     68.99     72.00     13.85     13.36
05/22 21:00      0.00    457.45    419258    440.91    277887    382000     81.32    122.90      3.85     71.12      4.00     13.86     13.36
05/22 22:00      0.00    457.26    411748    441.03    280598    382000     76.71     80.80      2.64     85.78      0.00     13.87     13.36
05/22 23:00      0.00    457.08    404632    441.13    284424    382000     78.24     79.00      3.97     80.53      0.00     13.87     13.42